Bear Creek, Louisiana
Current Conditions -  °F | °C
As of 6:15 PM on Wednesday 28 Jan 2015 (Local Time) from KRSN Reporting Station
Clear Clear  
Wind Chill: 64°   Ceiling: Unl
Heat Index: 64°   Visibility: 10mi
Dew Point: 40°   Wind: 8mph
Humidity: 42%   Direction: 170°S
Pressure: 30.12"   Gusts: NA
Location:  32.3029°N, 92.924°W
Report Text: KRSN 290015Z AUTO 17007KT 10SM CLR 18/05 A3012 RMK AO2 T01790047
Loading
Personal Weather Stations






























Interactive Weather Map New forecast layout! Learn more

10-Day Weather Forecast

Advertisements
Track Severe Weather on mobile